sensor_id;sensor_type;location;lat;lon;timestamp;P1;durP1;ratioP1;P2;durP2;ratioP2
44130;SDS011;29792;48.726;9.248;2022-11-12T00:00:26;17.90;;;10.48;;
44130;SDS011;29792;48.726;9.248;2022-11-12T00:02:51;10.23;;;9.15;;
44130;SDS011;29792;48.726;9.248;2022-11-12T00:05:17;13.57;;;9.45;;
44130;SDS011;29792;48.726;9.248;2022-11-12T00:07:42;10.55;;;8.23;;
44130;SDS011;29792;48.726;9.248;2022-11-12T00:10:07;10.60;;;8.82;;
44130;SDS011;29792;48.726;9.248;2022-11-12T00:12:33;11.27;;;7.95;;
44130;SDS011;29792;48.726;9.248;2022-11-12T00:14:58;9.75;;;8.27;;
44130;SDS011;29792;48.726;9.248;2022-11-12T00:17:24;7.97;;;7.03;;
44130;SDS011;29792;48.726;9.248;2022-11-12T00:19:49;13.65;;;8.07;;
44130;SDS011;29792;48.726;9.248;2022-11-12T00:22:14;10.95;;;7.32;;
44130;SDS011;29792;48.726;9.248;2022-11-12T00:24:40;10.57;;;7.95;;
44130;SDS011;29792;48.726;9.248;2022-11-12T00:27:05;9.55;;;8.20;;
44130;SDS011;29792;48.726;9.248;2022-11-12T00:29:30;12.98;;;8.13;;
44130;SDS011;29792;48.726;9.248;2022-11-12T00:31:55;10.88;;;7.35;;
44130;SDS011;29792;48.726;9.248;2022-11-12T00:34:21;18.63;;;9.13;;
44130;SDS011;29792;48.726;9.248;2022-11-12T00:36:46;81.28;;;11.38;;
44130;SDS011;29792;48.726;9.248;2022-11-12T00:39:11;33.13;;;8.75;;
44130;SDS011;29792;48.726;9.248;2022-11-12T00:41:37;55.80;;;11.40;;
44130;SDS011;29792;48.726;9.248;2022-11-12T00:44:02;30.38;;;8.52;;
44130;SDS011;29792;48.726;9.248;2022-11-12T00:46:27;12.25;;;6.70;;
44130;SDS011;29792;48.726;9.248;2022-11-12T00:48:53;26.08;;;8.00;;
44130;SDS011;29792;48.726;9.248;2022-11-12T00:51:18;35.00;;;9.27;;
44130;SDS011;29792;48.726;9.248;2022-11-12T00:53:46;27.05;;;8.52;;
44130;SDS011;29792;48.726;9.248;2022-11-12T00:56:12;22.88;;;7.97;;
44130;SDS011;29792;48.726;9.248;2022-11-12T00:58:38;16.60;;;7.43;;
44130;SDS011;29792;48.726;9.248;2022-11-12T01:01:04;15.95;;;7.45;;
44130;SDS011;29792;48.726;9.248;2022-11-12T01:03:32;23.77;;;7.65;;
44130;SDS011;29792;48.726;9.248;2022-11-12T01:06:01;15.15;;;7.05;;
44130;SDS011;29792;48.726;9.248;2022-11-12T01:08:30;25.27;;;8.35;;
44130;SDS011;29792;48.726;9.248;2022-11-12T01:10:56;48.30;;;8.70;;
44130;SDS011;29792;48.726;9.248;2022-11-12T01:13:29;24.42;;;8.05;;
44130;SDS011;29792;48.726;9.248;2022-11-12T01:15:54;26.17;;;7.03;;
44130;SDS011;29792;48.726;9.248;2022-11-12T01:18:19;74.60;;;9.90;;
44130;SDS011;29792;48.726;9.248;2022-11-12T01:20:45;56.53;;;8.45;;
44130;SDS011;29792;48.726;9.248;2022-11-12T01:23:10;34.63;;;7.43;;
44130;SDS011;29792;48.726;9.248;2022-11-12T01:25:36;58.85;;;8.38;;
44130;SDS011;29792;48.726;9.248;2022-11-12T01:28:02;53.70;;;8.68;;
44130;SDS011;29792;48.726;9.248;2022-11-12T01:30:27;70.80;;;10.38;;
44130;SDS011;29792;48.726;9.248;2022-11-12T01:32:52;38.17;;;6.65;;
44130;SDS011;29792;48.726;9.248;2022-11-12T01:35:18;33.92;;;5.80;;
44130;SDS011;29792;48.726;9.248;2022-11-12T01:37:43;43.40;;;6.55;;
44130;SDS011;29792;48.726;9.248;2022-11-12T01:40:08;39.60;;;6.45;;
44130;SDS011;29792;48.726;9.248;2022-11-12T01:42:34;47.35;;;5.97;;
44130;SDS011;29792;48.726;9.248;2022-11-12T01:44:59;20.52;;;4.75;;
44130;SDS011;29792;48.726;9.248;2022-11-12T01:47:28;19.02;;;5.53;;
44130;SDS011;29792;48.726;9.248;2022-11-12T01:49:58;30.40;;;5.40;;
44130;SDS011;29792;48.726;9.248;2022-11-12T01:52:33;15.75;;;4.55;;
44130;SDS011;29792;48.726;9.248;2022-11-12T01:55:08;17.52;;;5.05;;
44130;SDS011;29792;48.726;9.248;2022-11-12T01:57:42;13.02;;;4.88;;
44130;SDS011;29792;48.726;9.248;2022-11-12T02:00:12;27.73;;;4.30;;
44130;SDS011;29792;48.726;9.248;2022-11-12T02:02:38;15.90;;;4.40;;
44130;SDS011;29792;48.726;9.248;2022-11-12T02:05:08;22.48;;;5.13;;
44130;SDS011;29792;48.726;9.248;2022-11-12T02:07:36;15.55;;;4.57;;
44130;SDS011;29792;48.726;9.248;2022-11-12T02:10:05;39.22;;;6.45;;
44130;SDS011;29792;48.726;9.248;2022-11-12T02:12:32;13.60;;;5.32;;
44130;SDS011;29792;48.726;9.248;2022-11-12T02:15:16;5.88;;;3.40;;
44130;SDS011;29792;48.726;9.248;2022-11-12T02:17:41;4.03;;;3.60;;
44130;SDS011;29792;48.726;9.248;2022-11-12T02:20:08;4.70;;;4.30;;
44130;SDS011;29792;48.726;9.248;2022-11-12T02:22:35;5.15;;;4.47;;
44130;SDS011;29792;48.726;9.248;2022-11-12T02:25:00;4.80;;;4.38;;
44130;SDS011;29792;48.726;9.248;2022-11-12T02:27:26;5.75;;;4.13;;
44130;SDS011;29792;48.726;9.248;2022-11-12T02:29:51;4.57;;;4.05;;
44130;SDS011;29792;48.726;9.248;2022-11-12T02:32:17;4.68;;;3.90;;
44130;SDS011;29792;48.726;9.248;2022-11-12T02:34:42;5.85;;;4.40;;
44130;SDS011;29792;48.726;9.248;2022-11-12T02:37:07;4.63;;;4.22;;
44130;SDS011;29792;48.726;9.248;2022-11-12T02:39:32;4.93;;;3.78;;
44130;SDS011;29792;48.726;9.248;2022-11-12T02:41:58;4.30;;;3.80;;
44130;SDS011;29792;48.726;9.248;2022-11-12T02:44:23;17.48;;;4.55;;
44130;SDS011;29792;48.726;9.248;2022-11-12T02:46:49;35.60;;;6.22;;
44130;SDS011;29792;48.726;9.248;2022-11-12T02:49:14;45.20;;;6.28;;
44130;SDS011;29792;48.726;9.248;2022-11-12T02:51:40;52.63;;;6.93;;
44130;SDS011;29792;48.726;9.248;2022-11-12T02:54:05;29.23;;;5.55;;
44130;SDS011;29792;48.726;9.248;2022-11-12T02:56:30;38.03;;;6.20;;
44130;SDS011;29792;48.726;9.248;2022-11-12T02:58:56;69.80;;;8.35;;
44130;SDS011;29792;48.726;9.248;2022-11-12T03:01:21;57.45;;;7.75;;
44130;SDS011;29792;48.726;9.248;2022-11-12T03:03:46;37.30;;;6.07;;
44130;SDS011;29792;48.726;9.248;2022-11-12T03:06:12;31.45;;;7.03;;
44130;SDS011;29792;48.726;9.248;2022-11-12T03:08:37;20.27;;;5.85;;
44130;SDS011;29792;48.726;9.248;2022-11-12T03:11:06;28.77;;;6.95;;
44130;SDS011;29792;48.726;9.248;2022-11-12T03:13:33;14.70;;;4.75;;
44130;SDS011;29792;48.726;9.248;2022-11-12T03:15:59;33.42;;;6.13;;
44130;SDS011;29792;48.726;9.248;2022-11-12T03:18:25;21.67;;;4.43;;
44130;SDS011;29792;48.726;9.248;2022-11-12T03:20:51;43.55;;;6.15;;
44130;SDS011;29792;48.726;9.248;2022-11-12T03:23:16;13.20;;;4.60;;
44130;SDS011;29792;48.726;9.248;2022-11-12T03:25:42;28.27;;;4.97;;
44130;SDS011;29792;48.726;9.248;2022-11-12T03:28:11;20.55;;;4.80;;
44130;SDS011;29792;48.726;9.248;2022-11-12T03:30:38;65.38;;;7.85;;
44130;SDS011;29792;48.726;9.248;2022-11-12T03:33:06;38.00;;;6.25;;
44130;SDS011;29792;48.726;9.248;2022-11-12T03:35:33;37.28;;;6.63;;
44130;SDS011;29792;48.726;9.248;2022-11-12T03:37:58;52.17;;;7.05;;
44130;SDS011;29792;48.726;9.248;2022-11-12T03:40:24;30.60;;;6.60;;
44130;SDS011;29792;48.726;9.248;2022-11-12T03:42:50;94.72;;;9.20;;
44130;SDS011;29792;48.726;9.248;2022-11-12T03:45:17;73.30;;;8.35;;
44130;SDS011;29792;48.726;9.248;2022-11-12T03:47:45;57.40;;;7.60;;
44130;SDS011;29792;48.726;9.248;2022-11-12T03:50:12;56.83;;;8.38;;
44130;SDS011;29792;48.726;9.248;2022-11-12T03:52:38;83.00;;;9.27;;
44130;SDS011;29792;48.726;9.248;2022-11-12T03:55:04;42.80;;;7.32;;
44130;SDS011;29792;48.726;9.248;2022-11-12T03:57:30;133.80;;;10.90;;
44130;SDS011;29792;48.726;9.248;2022-11-12T03:59:55;32.25;;;7.90;;
44130;SDS011;29792;48.726;9.248;2022-11-12T04:02:20;20.13;;;5.53;;
44130;SDS011;29792;48.726;9.248;2022-11-12T04:04:45;27.25;;;5.97;;
44130;SDS011;29792;48.726;9.248;2022-11-12T04:07:29;13.18;;;5.50;;
44130;SDS011;29792;48.726;9.248;2022-11-12T04:10:13;19.83;;;5.80;;
44130;SDS011;29792;48.726;9.248;2022-11-12T04:12:38;19.42;;;5.60;;
44130;SDS011;29792;48.726;9.248;2022-11-12T04:15:22;16.45;;;5.07;;
44130;SDS011;29792;48.726;9.248;2022-11-12T04:17:48;24.92;;;5.93;;
44130;SDS011;29792;48.726;9.248;2022-11-12T04:20:32;6.85;;;4.85;;
44130;SDS011;29792;48.726;9.248;2022-11-12T04:23:15;7.43;;;4.88;;
44130;SDS011;29792;48.726;9.248;2022-11-12T04:25:41;10.18;;;4.85;;
44130;SDS011;29792;48.726;9.248;2022-11-12T04:28:24;10.65;;;5.65;;
44130;SDS011;29792;48.726;9.248;2022-11-12T04:30:50;7.50;;;4.55;;
44130;SDS011;29792;48.726;9.248;2022-11-12T04:33:15;9.70;;;5.65;;
44130;SDS011;29792;48.726;9.248;2022-11-12T04:35:40;15.68;;;5.22;;
44130;SDS011;29792;48.726;9.248;2022-11-12T04:38:05;48.40;;;8.40;;
44130;SDS011;29792;48.726;9.248;2022-11-12T04:40:31;10.43;;;5.60;;
44130;SDS011;29792;48.726;9.248;2022-11-12T04:43:16;16.63;;;5.68;;
44130;SDS011;29792;48.726;9.248;2022-11-12T04:46:00;47.65;;;8.68;;
44130;SDS011;29792;48.726;9.248;2022-11-12T04:48:27;36.55;;;7.60;;
44130;SDS011;29792;48.726;9.248;2022-11-12T04:50:53;25.25;;;6.72;;
44130;SDS011;29792;48.726;9.248;2022-11-12T04:53:21;21.13;;;6.00;;
44130;SDS011;29792;48.726;9.248;2022-11-12T04:55:51;23.48;;;6.43;;
44130;SDS011;29792;48.726;9.248;2022-11-12T04:58:17;21.77;;;5.47;;
44130;SDS011;29792;48.726;9.248;2022-11-12T05:00:43;25.70;;;6.95;;
44130;SDS011;29792;48.726;9.248;2022-11-12T05:03:08;25.85;;;7.30;;
44130;SDS011;29792;48.726;9.248;2022-11-12T05:05:33;43.03;;;7.30;;
44130;SDS011;29792;48.726;9.248;2022-11-12T05:07:59;43.65;;;7.70;;
44130;SDS011;29792;48.726;9.248;2022-11-12T05:10:25;45.75;;;7.28;;
44130;SDS011;29792;48.726;9.248;2022-11-12T05:12:50;63.60;;;8.77;;
44130;SDS011;29792;48.726;9.248;2022-11-12T05:15:15;18.75;;;5.82;;
44130;SDS011;29792;48.726;9.248;2022-11-12T05:17:41;32.75;;;6.25;;
44130;SDS011;29792;48.726;9.248;2022-11-12T05:20:08;39.30;;;6.63;;
44130;SDS011;29792;48.726;9.248;2022-11-12T05:22:34;21.02;;;5.97;;
44130;SDS011;29792;48.726;9.248;2022-11-12T05:25:00;36.17;;;6.47;;
44130;SDS011;29792;48.726;9.248;2022-11-12T05:27:25;37.97;;;6.93;;
44130;SDS011;29792;48.726;9.248;2022-11-12T05:29:50;24.67;;;5.68;;
44130;SDS011;29792;48.726;9.248;2022-11-12T05:32:15;13.93;;;4.85;;
44130;SDS011;29792;48.726;9.248;2022-11-12T05:34:42;7.95;;;4.78;;
44130;SDS011;29792;48.726;9.248;2022-11-12T05:37:08;4.95;;;4.25;;
44130;SDS011;29792;48.726;9.248;2022-11-12T05:39:35;14.35;;;5.00;;
44130;SDS011;29792;48.726;9.248;2022-11-12T05:42:00;16.35;;;4.82;;
44130;SDS011;29792;48.726;9.248;2022-11-12T05:44:25;18.95;;;5.20;;
44130;SDS011;29792;48.726;9.248;2022-11-12T05:46:51;13.20;;;5.53;;
44130;SDS011;29792;48.726;9.248;2022-11-12T05:49:16;25.55;;;5.32;;
44130;SDS011;29792;48.726;9.248;2022-11-12T05:51:42;31.83;;;5.63;;
44130;SDS011;29792;48.726;9.248;2022-11-12T05:54:08;19.05;;;5.18;;
44130;SDS011;29792;48.726;9.248;2022-11-12T05:56:34;30.23;;;6.45;;
44130;SDS011;29792;48.726;9.248;2022-11-12T05:59:00;47.15;;;8.68;;
44130;SDS011;29792;48.726;9.248;2022-11-12T06:01:27;91.88;;;11.05;;
44130;SDS011;29792;48.726;9.248;2022-11-12T06:03:52;67.20;;;8.50;;
44130;SDS011;29792;48.726;9.248;2022-11-12T06:06:18;41.78;;;7.05;;
44130;SDS011;29792;48.726;9.248;2022-11-12T06:08:43;53.38;;;8.70;;
44130;SDS011;29792;48.726;9.248;2022-11-12T06:11:08;48.03;;;7.88;;
44130;SDS011;29792;48.726;9.248;2022-11-12T06:13:34;121.40;;;13.30;;
44130;SDS011;29792;48.726;9.248;2022-11-12T06:15:59;80.20;;;10.38;;
44130;SDS011;29792;48.726;9.248;2022-11-12T06:18:24;138.20;;;15.65;;
44130;SDS011;29792;48.726;9.248;2022-11-12T06:20:50;94.43;;;10.82;;
44130;SDS011;29792;48.726;9.248;2022-11-12T06:23:34;85.15;;;11.38;;
44130;SDS011;29792;48.726;9.248;2022-11-12T06:25:59;36.95;;;7.22;;
44130;SDS011;29792;48.726;9.248;2022-11-12T06:28:25;120.43;;;13.45;;
44130;SDS011;29792;48.726;9.248;2022-11-12T06:30:50;157.77;;;16.30;;
44130;SDS011;29792;48.726;9.248;2022-11-12T06:33:15;67.45;;;9.43;;
44130;SDS011;29792;48.726;9.248;2022-11-12T06:35:41;156.55;;;16.58;;
44130;SDS011;29792;48.726;9.248;2022-11-12T06:38:06;161.02;;;17.85;;
44130;SDS011;29792;48.726;9.248;2022-11-12T06:40:31;45.10;;;8.98;;
44130;SDS011;29792;48.726;9.248;2022-11-12T06:42:57;116.97;;;11.60;;
44130;SDS011;29792;48.726;9.248;2022-11-12T06:45:22;137.52;;;11.40;;
44130;SDS011;29792;48.726;9.248;2022-11-12T06:47:48;84.20;;;10.82;;
44130;SDS011;29792;48.726;9.248;2022-11-12T06:50:13;76.00;;;7.80;;
44130;SDS011;29792;48.726;9.248;2022-11-12T06:52:39;109.68;;;10.40;;
44130;SDS011;29792;48.726;9.248;2022-11-12T06:55:04;116.15;;;26.13;;
44130;SDS011;29792;48.726;9.248;2022-11-12T06:57:29;31.02;;;6.93;;
44130;SDS011;29792;48.726;9.248;2022-11-12T06:59:55;69.43;;;9.35;;
44130;SDS011;29792;48.726;9.248;2022-11-12T07:02:20;64.30;;;8.88;;
44130;SDS011;29792;48.726;9.248;2022-11-12T07:04:46;103.85;;;11.15;;
44130;SDS011;29792;48.726;9.248;2022-11-12T07:07:11;77.82;;;9.30;;
44130;SDS011;29792;48.726;9.248;2022-11-12T07:09:36;65.43;;;9.77;;
44130;SDS011;29792;48.726;9.248;2022-11-12T07:12:01;45.47;;;6.18;;
44130;SDS011;29792;48.726;9.248;2022-11-12T07:14:27;87.22;;;9.48;;
44130;SDS011;29792;48.726;9.248;2022-11-12T07:16:52;53.15;;;7.95;;
44130;SDS011;29792;48.726;9.248;2022-11-12T07:19:17;55.65;;;8.15;;
44130;SDS011;29792;48.726;9.248;2022-11-12T07:21:42;106.95;;;13.55;;
44130;SDS011;29792;48.726;9.248;2022-11-12T07:24:08;148.38;;;16.27;;
44130;SDS011;29792;48.726;9.248;2022-11-12T07:26:33;150.73;;;15.27;;
44130;SDS011;29792;48.726;9.248;2022-11-12T07:28:58;154.80;;;13.82;;
44130;SDS011;29792;48.726;9.248;2022-11-12T07:31:24;83.07;;;9.68;;
44130;SDS011;29792;48.726;9.248;2022-11-12T07:33:49;104.55;;;10.80;;
44130;SDS011;29792;48.726;9.248;2022-11-12T07:36:16;150.35;;;15.38;;
44130;SDS011;29792;48.726;9.248;2022-11-12T07:38:43;112.10;;;11.95;;
44130;SDS011;29792;48.726;9.248;2022-11-12T07:41:13;111.25;;;15.23;;
44130;SDS011;29792;48.726;9.248;2022-11-12T07:43:40;107.90;;;12.35;;
44130;SDS011;29792;48.726;9.248;2022-11-12T07:46:09;237.85;;;22.00;;
44130;SDS011;29792;48.726;9.248;2022-11-12T07:48:36;190.75;;;18.60;;
44130;SDS011;29792;48.726;9.248;2022-11-12T07:51:04;245.95;;;22.23;;
44130;SDS011;29792;48.726;9.248;2022-11-12T07:53:40;473.13;;;44.03;;
44130;SDS011;29792;48.726;9.248;2022-11-12T07:56:06;319.02;;;25.20;;
44130;SDS011;29792;48.726;9.248;2022-11-12T07:58:35;358.10;;;32.20;;
44130;SDS011;29792;48.726;9.248;2022-11-12T08:01:07;324.48;;;29.20;;
44130;SDS011;29792;48.726;9.248;2022-11-12T08:03:33;400.45;;;37.05;;
44130;SDS011;29792;48.726;9.248;2022-11-12T08:05:58;365.05;;;34.88;;
44130;SDS011;29792;48.726;9.248;2022-11-12T08:08:25;261.35;;;24.13;;
44130;SDS011;29792;48.726;9.248;2022-11-12T08:10:57;360.98;;;30.23;;
44130;SDS011;29792;48.726;9.248;2022-11-12T08:13:23;170.32;;;17.30;;
44130;SDS011;29792;48.726;9.248;2022-11-12T08:15:48;308.48;;;28.77;;
44130;SDS011;29792;48.726;9.248;2022-11-12T08:18:14;365.20;;;32.83;;
44130;SDS011;29792;48.726;9.248;2022-11-12T08:20:39;367.65;;;37.42;;
44130;SDS011;29792;48.726;9.248;2022-11-12T08:25:33;348.55;;;32.45;;
44130;SDS011;29792;48.726;9.248;2022-11-12T08:27:58;315.25;;;26.83;;
44130;SDS011;29792;48.726;9.248;2022-11-12T08:30:27;326.08;;;31.63;;
44130;SDS011;29792;48.726;9.248;2022-11-12T08:32:57;66.38;;;9.68;;
44130;SDS011;29792;48.726;9.248;2022-11-12T08:35:24;181.45;;;18.17;;
44130;SDS011;29792;48.726;9.248;2022-11-12T08:37:51;363.88;;;32.10;;
44130;SDS011;29792;48.726;9.248;2022-11-12T08:40:21;174.88;;;18.23;;
44130;SDS011;29792;48.726;9.248;2022-11-12T08:42:46;203.95;;;19.83;;
44130;SDS011;29792;48.726;9.248;2022-11-12T08:45:11;195.02;;;18.10;;
44130;SDS011;29792;48.726;9.248;2022-11-12T08:47:37;193.18;;;20.20;;
44130;SDS011;29792;48.726;9.248;2022-11-12T08:50:02;259.70;;;25.58;;
44130;SDS011;29792;48.726;9.248;2022-11-12T08:52:27;164.80;;;18.35;;
44130;SDS011;29792;48.726;9.248;2022-11-12T08:54:52;133.55;;;15.68;;
44130;SDS011;29792;48.726;9.248;2022-11-12T08:57:18;70.35;;;9.60;;
44130;SDS011;29792;48.726;9.248;2022-11-12T08:59:43;216.85;;;21.08;;
44130;SDS011;29792;48.726;9.248;2022-11-12T09:02:11;117.85;;;14.10;;
44130;SDS011;29792;48.726;9.248;2022-11-12T09:04:37;207.10;;;19.42;;
44130;SDS011;29792;48.726;9.248;2022-11-12T09:07:03;181.20;;;18.08;;
44130;SDS011;29792;48.726;9.248;2022-11-12T09:09:28;264.65;;;28.52;;
44130;SDS011;29792;48.726;9.248;2022-11-12T09:11:53;290.08;;;26.10;;
44130;SDS011;29792;48.726;9.248;2022-11-12T09:14:18;285.98;;;23.38;;
44130;SDS011;29792;48.726;9.248;2022-11-12T09:16:44;250.35;;;24.27;;
44130;SDS011;29792;48.726;9.248;2022-11-12T09:19:09;44.63;;;6.97;;
44130;SDS011;29792;48.726;9.248;2022-11-12T09:21:36;124.82;;;14.70;;
44130;SDS011;29792;48.726;9.248;2022-11-12T09:24:01;143.20;;;15.15;;
44130;SDS011;29792;48.726;9.248;2022-11-12T09:26:27;95.55;;;11.80;;
44130;SDS011;29792;48.726;9.248;2022-11-12T09:28:52;99.03;;;11.18;;
44130;SDS011;29792;48.726;9.248;2022-11-12T09:31:18;49.08;;;6.70;;
44130;SDS011;29792;48.726;9.248;2022-11-12T09:33:44;56.30;;;9.82;;
44130;SDS011;29792;48.726;9.248;2022-11-12T09:36:09;71.43;;;11.30;;
44130;SDS011;29792;48.726;9.248;2022-11-12T09:38:34;104.03;;;11.57;;
44130;SDS011;29792;48.726;9.248;2022-11-12T09:41:12;82.15;;;11.43;;
44130;SDS011;29792;48.726;9.248;2022-11-12T09:43:52;197.70;;;20.63;;
44130;SDS011;29792;48.726;9.248;2022-11-12T09:46:25;131.25;;;13.20;;
44130;SDS011;29792;48.726;9.248;2022-11-12T09:49:11;14.55;;;5.72;;
44130;SDS011;29792;48.726;9.248;2022-11-12T09:51:44;7.05;;;5.63;;
44130;SDS011;29792;48.726;9.248;2022-11-12T09:54:23;6.60;;;5.70;;
44130;SDS011;29792;48.726;9.248;2022-11-12T09:56:50;9.27;;;6.78;;
44130;SDS011;29792;48.726;9.248;2022-11-12T09:59:16;7.15;;;6.50;;
44130;SDS011;29792;48.726;9.248;2022-11-12T10:01:53;7.70;;;6.53;;
44130;SDS011;29792;48.726;9.248;2022-11-12T10:09:43;30.40;;;7.90;;
44130;SDS011;29792;48.726;9.248;2022-11-12T10:12:20;7.88;;;5.78;;
44130;SDS011;29792;48.726;9.248;2022-11-12T10:15:09;7.97;;;5.82;;
44130;SDS011;29792;48.726;9.248;2022-11-12T10:18:26;7.72;;;5.28;;
44130;SDS011;29792;48.726;9.248;2022-11-12T10:21:10;8.13;;;6.50;;
44130;SDS011;29792;48.726;9.248;2022-11-12T10:23:47;7.05;;;6.15;;
44130;SDS011;29792;48.726;9.248;2022-11-12T10:26:18;7.35;;;6.03;;
44130;SDS011;29792;48.726;9.248;2022-11-12T10:28:47;6.53;;;5.90;;
44130;SDS011;29792;48.726;9.248;2022-11-12T10:31:17;6.70;;;5.60;;
44130;SDS011;29792;48.726;9.248;2022-11-12T10:33:44;6.43;;;5.05;;
44130;SDS011;29792;48.726;9.248;2022-11-12T10:36:16;7.53;;;6.32;;
44130;SDS011;29792;48.726;9.248;2022-11-12T10:38:46;5.70;;;4.63;;
44130;SDS011;29792;48.726;9.248;2022-11-12T10:41:18;7.15;;;6.10;;
44130;SDS011;29792;48.726;9.248;2022-11-12T10:43:52;5.07;;;4.57;;
44130;SDS011;29792;48.726;9.248;2022-11-12T10:46:20;6.85;;;4.82;;
44130;SDS011;29792;48.726;9.248;2022-11-12T10:48:58;8.68;;;5.15;;
44130;SDS011;29792;48.726;9.248;2022-11-12T10:51:35;5.38;;;4.65;;
44130;SDS011;29792;48.726;9.248;2022-11-12T10:56:53;5.25;;;4.43;;
44130;SDS011;29792;48.726;9.248;2022-11-12T10:59:19;4.88;;;4.38;;
44130;SDS011;29792;48.726;9.248;2022-11-12T11:01:46;6.95;;;5.00;;
44130;SDS011;29792;48.726;9.248;2022-11-12T11:04:29;7.78;;;6.28;;
44130;SDS011;29792;48.726;9.248;2022-11-12T11:07:05;5.82;;;5.28;;
44130;SDS011;29792;48.726;9.248;2022-11-12T11:09:51;4.97;;;3.60;;
44130;SDS011;29792;48.726;9.248;2022-11-12T11:12:26;5.45;;;3.95;;
44130;SDS011;29792;48.726;9.248;2022-11-12T11:17:45;5.07;;;4.10;;
44130;SDS011;29792;48.726;9.248;2022-11-12T11:20:22;4.50;;;4.10;;
44130;SDS011;29792;48.726;9.248;2022-11-12T11:22:59;4.35;;;3.95;;
44130;SDS011;29792;48.726;9.248;2022-11-12T11:25:27;4.13;;;3.70;;
44130;SDS011;29792;48.726;9.248;2022-11-12T11:28:03;3.78;;;3.15;;
44130;SDS011;29792;48.726;9.248;2022-11-12T11:30:31;4.20;;;3.80;;
44130;SDS011;29792;48.726;9.248;2022-11-12T11:38:15;4.30;;;3.90;;
44130;SDS011;29792;48.726;9.248;2022-11-12T11:46:30;6.97;;;4.75;;
44130;SDS011;29792;48.726;9.248;2022-11-12T11:52:17;6.15;;;4.07;;
44130;SDS011;29792;48.726;9.248;2022-11-12T11:57:54;5.28;;;4.18;;
44130;SDS011;29792;48.726;9.248;2022-11-12T12:00:29;8.50;;;5.35;;
44130;SDS011;29792;48.726;9.248;2022-11-12T12:03:11;5.90;;;4.65;;
44130;SDS011;29792;48.726;9.248;2022-11-12T12:05:43;7.63;;;5.32;;
44130;SDS011;29792;48.726;9.248;2022-11-12T12:08:53;5.45;;;3.72;;
44130;SDS011;29792;48.726;9.248;2022-11-12T12:11:22;5.18;;;4.65;;
44130;SDS011;29792;48.726;9.248;2022-11-12T12:16:57;4.97;;;4.47;;
44130;SDS011;29792;48.726;9.248;2022-11-12T12:19:42;5.63;;;4.80;;
44130;SDS011;29792;48.726;9.248;2022-11-12T12:22:23;4.97;;;4.40;;
44130;SDS011;29792;48.726;9.248;2022-11-12T12:25:07;5.57;;;5.07;;
44130;SDS011;29792;48.726;9.248;2022-11-12T12:27:37;4.38;;;3.75;;
44130;SDS011;29792;48.726;9.248;2022-11-12T12:32:48;7.07;;;4.85;;
44130;SDS011;29792;48.726;9.248;2022-11-12T12:35:36;5.25;;;4.72;;
44130;SDS011;29792;48.726;9.248;2022-11-12T12:38:23;6.47;;;4.43;;
44130;SDS011;29792;48.726;9.248;2022-11-12T12:43:28;7.25;;;5.10;;
44130;SDS011;29792;48.726;9.248;2022-11-12T12:45:59;5.95;;;4.82;;
44130;SDS011;29792;48.726;9.248;2022-11-12T12:48:36;6.45;;;4.97;;
44130;SDS011;29792;48.726;9.248;2022-11-12T12:51:06;6.43;;;5.30;;
44130;SDS011;29792;48.726;9.248;2022-11-12T12:53:32;6.43;;;4.88;;
44130;SDS011;29792;48.726;9.248;2022-11-12T12:56:45;5.95;;;4.05;;
44130;SDS011;29792;48.726;9.248;2022-11-12T12:58:47;4.90;;;4.47;;
44130;SDS011;29792;48.726;9.248;2022-11-12T13:06:31;4.57;;;4.18;;
44130;SDS011;29792;48.726;9.248;2022-11-12T13:16:59;5.20;;;4.80;;
44130;SDS011;29792;48.726;9.248;2022-11-12T13:30:05;4.95;;;4.43;;
44130;SDS011;29792;48.726;9.248;2022-11-12T13:37:43;5.97;;;4.75;;
44130;SDS011;29792;48.726;9.248;2022-11-12T13:40:32;5.20;;;4.80;;
44130;SDS011;29792;48.726;9.248;2022-11-12T13:43:08;5.07;;;4.55;;
44130;SDS011;29792;48.726;9.248;2022-11-12T13:45:39;4.07;;;3.60;;
44130;SDS011;29792;48.726;9.248;2022-11-12T13:48:16;7.80;;;5.65;;
44130;SDS011;29792;48.726;9.248;2022-11-12T13:50:48;5.82;;;5.25;;
44130;SDS011;29792;48.726;9.248;2022-11-12T13:53:17;8.10;;;4.70;;
44130;SDS011;29792;48.726;9.248;2022-11-12T13:55:48;6.65;;;5.53;;
44130;SDS011;29792;48.726;9.248;2022-11-12T13:58:18;5.40;;;4.90;;
44130;SDS011;29792;48.726;9.248;2022-11-12T14:00:50;6.15;;;5.50;;
44130;SDS011;29792;48.726;9.248;2022-11-12T14:03:17;8.15;;;6.25;;
44130;SDS011;29792;48.726;9.248;2022-11-12T14:05:45;9.75;;;6.15;;
44130;SDS011;29792;48.726;9.248;2022-11-12T14:13:43;5.97;;;5.40;;
44130;SDS011;29792;48.726;9.248;2022-11-12T14:16:43;5.93;;;5.38;;
44130;SDS011;29792;48.726;9.248;2022-11-12T14:19:21;5.85;;;4.88;;
44130;SDS011;29792;48.726;9.248;2022-11-12T14:22:09;5.60;;;5.05;;
44130;SDS011;29792;48.726;9.248;2022-11-12T14:24:39;6.60;;;5.05;;
44130;SDS011;29792;48.726;9.248;2022-11-12T14:27:31;6.30;;;4.95;;
44130;SDS011;29792;48.726;9.248;2022-11-12T14:30:03;5.88;;;5.28;;
44130;SDS011;29792;48.726;9.248;2022-11-12T14:32:35;5.18;;;4.65;;
44130;SDS011;29792;48.726;9.248;2022-11-12T14:37:50;5.78;;;4.63;;
44130;SDS011;29792;48.726;9.248;2022-11-12T14:40:23;5.13;;;4.63;;
44130;SDS011;29792;48.726;9.248;2022-11-12T14:42:49;6.15;;;5.55;;
44130;SDS011;29792;48.726;9.248;2022-11-12T14:45:16;6.03;;;5.43;;
44130;SDS011;29792;48.726;9.248;2022-11-12T14:47:43;5.53;;;5.03;;
44130;SDS011;29792;48.726;9.248;2022-11-12T14:50:32;5.47;;;4.55;;
44130;SDS011;29792;48.726;9.248;2022-11-12T14:53:01;6.82;;;5.25;;
44130;SDS011;29792;48.726;9.248;2022-11-12T14:55:31;5.75;;;4.55;;
44130;SDS011;29792;48.726;9.248;2022-11-12T14:58:00;6.13;;;5.13;;
44130;SDS011;29792;48.726;9.248;2022-11-12T15:02:54;6.93;;;5.47;;
44130;SDS011;29792;48.726;9.248;2022-11-12T15:05:21;5.78;;;4.80;;
44130;SDS011;29792;48.726;9.248;2022-11-12T15:08:04;7.80;;;5.78;;
44130;SDS011;29792;48.726;9.248;2022-11-12T15:10:39;7.15;;;5.80;;
44130;SDS011;29792;48.726;9.248;2022-11-12T15:13:24;5.90;;;5.30;;
44130;SDS011;29792;48.726;9.248;2022-11-12T15:15:52;5.47;;;4.47;;
44130;SDS011;29792;48.726;9.248;2022-11-12T15:18:20;8.00;;;5.88;;
44130;SDS011;29792;48.726;9.248;2022-11-12T15:23:44;6.78;;;5.93;;
44130;SDS011;29792;48.726;9.248;2022-11-12T15:26:34;8.30;;;7.30;;
44130;SDS011;29792;48.726;9.248;2022-11-12T15:31:45;12.60;;;7.78;;
44130;SDS011;29792;48.726;9.248;2022-11-12T15:37:04;13.50;;;8.27;;
44130;SDS011;29792;48.726;9.248;2022-11-12T15:39:31;13.02;;;7.90;;
44130;SDS011;29792;48.726;9.248;2022-11-12T15:42:50;13.65;;;9.70;;
44130;SDS011;29792;48.726;9.248;2022-11-12T15:44:55;13.48;;;9.48;;
44130;SDS011;29792;48.726;9.248;2022-11-12T15:47:23;11.43;;;8.73;;
44130;SDS011;29792;48.726;9.248;2022-11-12T15:49:52;12.88;;;9.80;;
44130;SDS011;29792;48.726;9.248;2022-11-12T15:52:21;11.98;;;9.88;;
44130;SDS011;29792;48.726;9.248;2022-11-12T15:54:47;9.55;;;8.38;;
44130;SDS011;29792;48.726;9.248;2022-11-12T15:57:13;16.33;;;11.38;;
44130;SDS011;29792;48.726;9.248;2022-11-12T15:59:41;17.80;;;14.10;;
44130;SDS011;29792;48.726;9.248;2022-11-12T16:02:12;15.77;;;10.70;;
44130;SDS011;29792;48.726;9.248;2022-11-12T16:04:38;14.98;;;11.15;;
44130;SDS011;29792;48.726;9.248;2022-11-12T16:07:03;14.13;;;10.40;;
44130;SDS011;29792;48.726;9.248;2022-11-12T16:09:32;13.45;;;11.38;;
44130;SDS011;29792;48.726;9.248;2022-11-12T16:11:58;13.07;;;11.45;;